createdAt,value
2024-03-06T00:02:23.583Z,101640.94
2024-03-06T00:04:50.551Z,101638.19
2024-03-06T00:07:17.689Z,101630.09
2024-03-06T00:09:44.471Z,101638.59
2024-03-06T00:12:11.645Z,101644.28
2024-03-06T00:14:38.981Z,101646.69
2024-03-06T00:17:07.134Z,101638.44
2024-03-06T00:19:34.054Z,101658.09
2024-03-06T00:22:02.376Z,101652.91
2024-03-06T00:24:29.465Z,101653.69
2024-03-06T00:26:56.449Z,101650.50
2024-03-06T00:29:23.285Z,101656.16
2024-03-06T00:31:50.303Z,101656.59
2024-03-06T00:34:17.290Z,101635.81
2024-03-06T00:36:44.792Z,101654.66
2024-03-06T00:39:15.392Z,101651.47
2024-03-06T00:41:43.043Z,101658.72
2024-03-06T00:44:09.719Z,101663.22
2024-03-06T00:46:36.481Z,101664.44
2024-03-06T00:49:03.655Z,101661.28
2024-03-06T00:51:37.228Z,101669.38
2024-03-06T00:54:10.967Z,101666.16
2024-03-06T00:56:40.893Z,101672.19
2024-03-06T00:59:08.399Z,101668.72
2024-03-06T01:01:35.528Z,101683.16
2024-03-06T01:04:03.290Z,101679.97
2024-03-06T01:06:30.018Z,101673.16
2024-03-06T01:08:58.130Z,101672.78
2024-03-06T01:11:25.621Z,101681.63
2024-03-06T01:13:52.300Z,101675.25
2024-03-06T01:16:19.249Z,101679.28
2024-03-06T01:18:45.929Z,101689.75
2024-03-06T01:21:12.642Z,101677.72
2024-03-06T01:23:39.422Z,101690.59
2024-03-06T01:26:06.105Z,101681.38
2024-03-06T01:28:32.883Z,101689.88
2024-03-06T01:31:00.178Z,101672.97
2024-03-06T01:33:27.834Z,101687.41
2024-03-06T01:35:54.800Z,101700.41
2024-03-06T01:38:21.616Z,101688.31
2024-03-06T01:40:48.333Z,101694.34
2024-03-06T01:43:23.238Z,101685.19
2024-03-06T01:45:51.677Z,101696.00
2024-03-06T01:48:21.411Z,101706.13
2024-03-06T01:50:48.298Z,101694.91
2024-03-06T01:53:17.842Z,101697.31
2024-03-06T01:55:44.509Z,101711.81
2024-03-06T01:58:11.564Z,101691.72
2024-03-06T02:00:38.674Z,101710.25
2024-03-06T02:03:05.484Z,101701.00
2024-03-06T02:05:33.269Z,101709.47
2024-03-06T02:08:03.637Z,101710.34
2024-03-06T02:10:31.075Z,101711.94
2024-03-06T02:12:59.074Z,101709.94
2024-03-06T02:15:25.710Z,101723.28
2024-03-06T02:17:53.385Z,101721.25
2024-03-06T02:20:26.595Z,101720.88
2024-03-06T02:22:53.340Z,101716.84
2024-03-06T02:25:21.126Z,101715.25
2024-03-06T02:27:49.384Z,101720.56
2024-03-06T02:30:16.530Z,101728.22
2024-03-06T02:32:44.789Z,101712.91
2024-03-06T02:35:12.090Z,101725.84
2024-03-06T02:37:39.652Z,101730.72
2024-03-06T02:40:08.347Z,101731.53
2024-03-06T02:42:34.887Z,101725.88
2024-03-06T02:45:01.398Z,101723.88
2024-03-06T02:47:27.889Z,101725.88
2024-03-06T02:49:54.469Z,101728.34
2024-03-06T02:52:21.088Z,101723.09
2024-03-06T02:54:47.648Z,101722.31
2024-03-06T02:57:14.119Z,101727.59
2024-03-06T02:59:41.578Z,101720.69
2024-03-06T03:02:08.781Z,101731.25
2024-03-06T03:04:35.452Z,101732.44
2024-03-06T03:07:01.911Z,101729.25
2024-03-06T03:09:29.102Z,101726.41
2024-03-06T03:11:56.066Z,101726.41
2024-03-06T03:14:22.783Z,101737.72
2024-03-06T03:16:49.697Z,101730.50
2024-03-06T03:19:17.346Z,101728.50
2024-03-06T03:21:47.069Z,101729.28
2024-03-06T03:24:13.613Z,101731.75
2024-03-06T03:26:40.080Z,101733.78
2024-03-06T03:29:06.644Z,101739.81
2024-03-06T03:31:34.311Z,101743.03
2024-03-06T03:34:00.832Z,101735.00
2024-03-06T03:36:27.409Z,101743.88
2024-03-06T03:38:54.072Z,101748.72
2024-03-06T03:41:20.845Z,101744.69
2024-03-06T03:43:47.517Z,101754.41
2024-03-06T03:46:14.744Z,101747.97
2024-03-06T03:48:41.298Z,101751.59
2024-03-06T03:51:08.127Z,101755.25
2024-03-06T03:53:35.342Z,101758.06
2024-03-06T03:56:02.680Z,101752.41
2024-03-06T03:58:29.247Z,101758.53
2024-03-06T04:00:56.853Z,101760.09
2024-03-06T04:03:23.740Z,101758.94
2024-03-06T04:05:50.873Z,101766.59
2024-03-06T04:08:17.447Z,101762.97
2024-03-06T04:10:47.352Z,101773.84
2024-03-06T04:13:16.083Z,101776.28
2024-03-06T04:15:42.711Z,101776.72
2024-03-06T04:18:09.364Z,101771.47
2024-03-06T04:20:35.838Z,101761.81
2024-03-06T04:23:03.038Z,101771.06
2024-03-06T04:25:29.601Z,101769.47
2024-03-06T04:27:56.868Z,101772.28
2024-03-06T04:30:23.634Z,101773.91
2024-03-06T04:32:50.316Z,101770.69
2024-03-06T04:35:17.212Z,101783.19
2024-03-06T04:37:45.329Z,101774.34
2024-03-06T04:40:12.470Z,101784.41
2024-03-06T04:42:39.050Z,101773.97
2024-03-06T04:45:26.583Z,101776.38
2024-03-06T04:47:53.305Z,101780.41
2024-03-06T04:50:19.969Z,101778.00
2024-03-06T04:52:46.865Z,101788.47
2024-03-06T04:55:13.964Z,101790.91
2024-03-06T04:57:44.590Z,101794.53
2024-03-06T05:00:12.433Z,101796.16
2024-03-06T06:00:19.293Z,101864.47
2024-03-06T06:02:47.121Z,101869.72
2024-03-06T06:07:45.529Z,101878.19
2024-03-06T06:10:12.389Z,101888.66
2024-03-06T06:12:38.901Z,101882.19
2024-03-06T06:15:06.108Z,101891.09
2024-03-06T06:17:32.734Z,101896.72
2024-03-06T06:19:59.396Z,101877.41
2024-03-06T06:22:28.645Z,101899.97
2024-03-06T06:24:56.754Z,101894.31
2024-03-06T06:27:23.345Z,101898.34
2024-03-06T06:29:49.853Z,101908.03
2024-03-06T06:32:16.543Z,101910.44
2024-03-06T06:34:43.078Z,101919.72
2024-03-06T06:37:09.556Z,101908.00
2024-03-06T06:39:36.103Z,101909.66
2024-03-06T06:42:04.284Z,101924.56
2024-03-06T06:44:31.003Z,101937.06
2024-03-06T06:46:57.848Z,101934.66
2024-03-06T06:49:24.989Z,101939.88
2024-03-06T06:51:51.714Z,101944.31
2024-03-06T06:54:18.360Z,101944.31
2024-03-06T06:56:44.922Z,101947.16
2024-03-06T06:59:11.956Z,101955.63
2024-03-06T07:01:38.452Z,101962.06
2024-03-06T07:04:05.069Z,101949.56
2024-03-06T07:06:31.532Z,101954.38
2024-03-06T07:08:58.004Z,101957.22
2024-03-06T07:11:25.235Z,101966.91
2024-03-06T07:13:52.366Z,101958.03
2024-03-06T07:16:18.933Z,101968.50
2024-03-06T07:18:45.423Z,101967.72
2024-03-06T07:21:11.974Z,101965.69
2024-03-06T07:23:38.546Z,101961.28
2024-03-06T07:26:06.271Z,101972.56
2024-03-06T07:28:33.924Z,101985.44
2024-03-06T07:31:00.368Z,101973.34
2024-03-06T07:33:27.005Z,101983.84
2024-03-06T07:35:53.841Z,102001.16
2024-03-06T07:38:21.892Z,102005.63
2024-03-06T07:40:48.567Z,101984.25
2024-03-06T07:43:15.751Z,101992.69
2024-03-06T07:45:42.689Z,102000.78
2024-03-06T07:48:10.993Z,101992.72
2024-03-06T07:50:37.774Z,102008.84
2024-03-06T07:53:04.485Z,102008.84
2024-03-06T07:55:31.046Z,102018.50
2024-03-06T07:57:57.793Z,102012.88
2024-03-06T08:00:24.677Z,102011.25
2024-03-06T08:02:51.594Z,102009.63
2024-03-06T08:05:19.118Z,102029.78
2024-03-06T08:07:47.065Z,102022.50
2024-03-06T08:10:14.629Z,102030.59
2024-03-06T08:12:44.859Z,102035.44
2024-03-06T08:15:13.230Z,102045.09
2024-03-06T08:17:43.349Z,102033.00
2024-03-06T08:20:11.194Z,102034.59
2024-03-06T08:22:40.621Z,102032.56
2024-03-06T08:25:11.579Z,102035.78
2024-03-06T08:27:40.156Z,102015.22
2024-03-06T08:30:08.306Z,102044.69
2024-03-06T08:32:36.710Z,102043.44
2024-03-06T08:35:07.107Z,102049.09
2024-03-06T08:37:35.154Z,102043.03
2024-03-06T08:40:02.459Z,102046.66
2024-03-06T08:42:30.438Z,102042.63
2024-03-06T08:44:57.813Z,102050.69
2024-03-06T08:47:24.617Z,102065.22
2024-03-06T08:49:51.314Z,102047.44
2024-03-06T08:52:18.006Z,102060.34
2024-03-06T08:54:44.858Z,102057.91
2024-03-06T08:57:12.546Z,102059.94
2024-03-06T08:59:39.181Z,102070.81
2024-03-06T09:02:17.582Z,102073.22
2024-03-06T09:04:44.505Z,102074.03
2024-03-06T09:07:11.756Z,102075.66
2024-03-06T09:09:39.317Z,102080.88
2024-03-06T09:12:07.287Z,102086.91
2024-03-06T09:14:34.985Z,102082.88
2024-03-06T09:17:02.293Z,102090.94
2024-03-06T09:19:29.740Z,102085.28
2024-03-06T09:21:56.268Z,102087.69
2024-03-06T09:24:26.283Z,102088.91
2024-03-06T09:26:53.982Z,102096.97
2024-03-06T09:29:21.208Z,102099.00
2024-03-06T09:31:51.170Z,102100.19
2024-03-06T09:34:17.723Z,102107.06
2024-03-06T09:36:49.094Z,102116.34
2024-03-06T09:39:26.059Z,102113.91
2024-03-06T09:41:54.662Z,102120.34
2024-03-06T09:44:22.437Z,102111.06
2024-03-06T09:46:50.374Z,102118.34
2024-03-06T09:49:20.355Z,102115.88
2024-03-06T09:51:48.564Z,102114.66
2024-03-06T09:54:18.740Z,102114.25
2024-03-06T09:56:48.030Z,102117.06
2024-03-06T09:59:15.649Z,102119.09
2024-03-06T10:01:55.475Z,102112.59
2024-03-06T10:04:26.035Z,102121.47
2024-03-06T10:06:57.479Z,102115.81
2024-03-06T10:09:24.669Z,102121.88
2024-03-06T10:11:55.278Z,102119.00
2024-03-06T10:14:22.154Z,102123.88
2024-03-06T10:16:59.428Z,102123.84
2024-03-06T10:19:31.182Z,102127.88
2024-03-06T10:21:58.558Z,102121.41
2024-03-06T10:24:29.478Z,102134.31
2024-03-06T10:26:59.283Z,102127.81
2024-03-06T10:29:27.742Z,102129.06
2024-03-06T10:31:59.096Z,102130.25
2024-03-06T10:34:27.343Z,102135.50
2024-03-06T10:37:04.962Z,102129.81
2024-03-06T10:39:40.139Z,102130.22
2024-03-06T10:42:08.235Z,102129.38
2024-03-06T10:44:35.929Z,102130.97
2024-03-06T10:47:04.933Z,102124.53
2024-03-06T10:49:33.279Z,102121.25
2024-03-06T10:52:01.138Z,102123.66
2024-03-06T10:54:29.944Z,102127.69
2024-03-06T10:56:57.404Z,102127.66
2024-03-06T10:59:28.855Z,102135.75
2024-03-06T11:02:03.128Z,102133.31
2024-03-06T11:04:35.113Z,102131.69
2024-03-06T11:07:03.689Z,102125.59
2024-03-06T11:09:36.186Z,102129.22
2024-03-06T11:12:03.652Z,102136.47
2024-03-06T11:14:32.559Z,102125.16
2024-03-06T11:17:06.524Z,102139.69
2024-03-06T11:19:53.961Z,102142.91
2024-03-06T11:23:09.712Z,102145.31
2024-03-06T11:25:52.200Z,102138.88
2024-03-06T11:28:23.839Z,102138.03
2024-03-06T11:31:07.413Z,102142.50
2024-03-06T11:33:45.669Z,102143.28
2024-03-06T11:36:19.438Z,102140.44
2024-03-06T11:39:08.373Z,102145.28
2024-03-06T11:41:38.078Z,102137.16
2024-03-06T11:44:07.579Z,102135.56
2024-03-06T11:46:50.865Z,102140.41
2024-03-06T11:49:21.682Z,102146.78
2024-03-06T11:51:54.894Z,102141.13
2024-03-06T11:54:25.338Z,102143.13
2024-03-06T11:56:54.839Z,102136.28
2024-03-06T11:59:29.697Z,102147.53
2024-03-06T12:01:57.658Z,102139.41
2024-03-06T12:04:25.417Z,102145.50
2024-03-06T12:06:52.255Z,102151.97
2024-03-06T12:09:19.383Z,102143.03
2024-03-06T12:11:46.366Z,102143.41
2024-03-06T12:14:18.877Z,102142.59
2024-03-06T12:16:55.500Z,102149.03
2024-03-06T12:19:23.318Z,102148.19
2024-03-06T12:21:49.930Z,102148.56
2024-03-06T12:24:21.019Z,102143.31
2024-03-06T12:26:49.573Z,102153.41
2024-03-06T12:29:22.213Z,102147.31
2024-03-06T12:31:48.791Z,102144.44
2024-03-06T12:34:18.709Z,102144.81
2024-03-06T12:36:45.886Z,102150.47
2024-03-06T12:39:19.199Z,102145.97
2024-03-06T12:41:46.610Z,102149.19
2024-03-06T12:44:13.289Z,102145.94
2024-03-06T12:46:40.141Z,102144.66
2024-03-06T12:49:06.646Z,102142.25
2024-03-06T12:51:33.802Z,102148.63
2024-03-06T12:54:02.246Z,102146.97
2024-03-06T12:56:28.811Z,102134.00
2024-03-06T12:58:55.342Z,102140.84
2024-03-06T13:01:21.979Z,102138.38
2024-03-06T13:03:48.608Z,102134.69
2024-03-06T13:06:15.249Z,102131.84
2024-03-06T13:08:42.387Z,102143.97
2024-03-06T13:11:10.675Z,102137.84
2024-03-06T13:13:37.378Z,102141.88
2024-03-06T13:16:06.697Z,102136.97
2024-03-06T13:18:35.155Z,102131.31
2024-03-06T13:21:02.931Z,102128.84
2024-03-06T13:23:29.606Z,102144.22
2024-03-06T13:25:56.221Z,102140.50
2024-03-06T13:28:22.685Z,102139.28
2024-03-06T13:30:49.274Z,102149.78
2024-03-06T13:33:15.976Z,102145.31
2024-03-06T13:35:43.744Z,102147.69
2024-03-06T13:38:10.282Z,102137.19
2024-03-06T13:40:36.847Z,102148.94
2024-03-06T13:43:03.328Z,102152.16
2024-03-06T13:45:29.884Z,102139.16
2024-03-06T13:47:56.598Z,102142.78
2024-03-06T13:50:24.862Z,102149.69
2024-03-06T13:52:51.622Z,102136.69
2024-03-06T13:55:18.355Z,102131.41
2024-03-06T13:57:44.876Z,102136.25
2024-03-06T14:00:18.100Z,102137.84
2024-03-06T14:02:48.683Z,102136.25
2024-03-06T14:05:18.189Z,102138.25
2024-03-06T14:07:44.933Z,102139.81
2024-03-06T14:10:12.453Z,102140.66
2024-03-06T14:12:39.681Z,102141.03
2024-03-06T14:15:13.805Z,102141.81
2024-03-06T14:17:40.960Z,102146.28
2024-03-06T14:20:07.820Z,102144.22
2024-03-06T14:22:34.393Z,102142.19
2024-03-06T14:25:00.920Z,102152.28
2024-03-06T14:27:27.400Z,102149.84
2024-03-06T14:29:55.302Z,102151.84
2024-03-06T14:32:22.642Z,102158.34
2024-03-06T14:34:49.396Z,102143.69
2024-03-06T14:37:15.966Z,102155.06
2024-03-06T14:39:42.443Z,102159.88
2024-03-06T14:42:08.963Z,102161.50
2024-03-06T14:44:35.642Z,102160.28
2024-03-06T14:47:02.213Z,102155.81
2024-03-06T14:49:28.810Z,102160.66
2024-03-06T14:51:56.582Z,102157.88
2024-03-06T14:54:26.766Z,102162.28
2024-03-06T14:56:54.199Z,102166.34
2024-03-06T14:59:22.551Z,102172.44
2024-03-06T15:01:49.762Z,102165.97
2024-03-06T15:04:16.342Z,102167.94
2024-03-06T15:06:44.397Z,102176.06
2024-03-06T15:09:13.090Z,102175.22
2024-03-06T15:11:42.988Z,102169.19
2024-03-06T15:14:09.752Z,102171.16
2024-03-06T15:16:38.495Z,102178.47
2024-03-06T15:19:05.166Z,102179.31
2024-03-06T15:21:35.210Z,102184.50
2024-03-06T15:24:04.643Z,102188.94
2024-03-06T15:26:32.686Z,102181.69
2024-03-06T15:29:00.388Z,102183.25
2024-03-06T15:31:26.901Z,102192.56
2024-03-06T15:33:53.592Z,102190.94
2024-03-06T15:36:20.168Z,102188.09
2024-03-06T15:38:46.816Z,102190.50
2024-03-06T15:41:13.832Z,102200.22
2024-03-06T15:43:40.421Z,102189.28
2024-03-06T15:46:07.519Z,102192.19
2024-03-06T15:48:35.109Z,102193.75
2024-03-06T15:51:01.848Z,102189.78
2024-03-06T15:53:32.830Z,102199.44
2024-03-06T15:55:59.440Z,102194.19
2024-03-06T15:58:26.085Z,102199.84
2024-03-06T16:00:56.727Z,102192.13
2024-03-06T16:03:26.173Z,102200.66
2024-03-06T16:05:58.784Z,102185.69
2024-03-06T16:08:30.480Z,102193.78
2024-03-06T16:10:58.565Z,102186.50
2024-03-06T16:13:25.107Z,102192.97
2024-03-06T16:15:51.793Z,102188.94
2024-03-06T16:18:18.587Z,102193.78
2024-03-06T16:20:46.141Z,102193.41
2024-03-06T16:23:12.844Z,102200.72
2024-03-06T16:25:39.427Z,102204.78
2024-03-06T16:28:07.741Z,102207.63
2024-03-06T16:30:34.576Z,102209.25
2024-03-06T16:33:02.304Z,102209.72
2024-03-06T16:35:29.316Z,102200.78
2024-03-06T16:37:56.878Z,102207.66
2024-03-06T16:40:24.118Z,102202.78
2024-03-06T16:42:50.631Z,102215.00
2024-03-06T16:45:17.203Z,102211.41
2024-03-06T16:47:43.855Z,102216.25
2024-03-06T16:50:10.853Z,102221.53
2024-03-06T16:52:37.370Z,102228.03
2024-03-06T16:55:04.585Z,102227.22
2024-03-06T16:57:32.119Z,102219.94
2024-03-06T16:59:58.790Z,102223.63
2024-03-06T17:02:25.373Z,102231.31
2024-03-06T17:04:51.875Z,102229.72
2024-03-06T17:07:18.383Z,102241.88
2024-03-06T17:09:44.837Z,102245.94
2024-03-06T17:12:11.450Z,102238.69
2024-03-06T17:14:38.083Z,102239.53
2024-03-06T17:17:04.902Z,102239.53
2024-03-06T17:19:31.377Z,102238.75
2024-03-06T17:21:58.096Z,102244.84
2024-03-06T17:24:24.607Z,102245.28
2024-03-06T17:26:51.246Z,102244.06
2024-03-06T17:29:18.164Z,102253.47
2024-03-06T17:31:45.039Z,102256.69
2024-03-06T17:34:11.485Z,102268.47
2024-03-06T17:36:39.337Z,102260.78
2024-03-06T17:39:09.858Z,102274.56
2024-03-06T17:41:36.663Z,102277.03
2024-03-06T17:44:05.223Z,102268.94
2024-03-06T17:46:32.682Z,102274.66
2024-03-06T17:48:59.788Z,102275.44
2024-03-06T17:51:33.498Z,102281.97
2024-03-06T17:53:59.971Z,102282.44
2024-03-06T17:56:26.678Z,102290.97
2024-03-06T17:58:53.971Z,102297.44
2024-03-06T18:01:25.087Z,102299.09
2024-03-06T18:03:53.085Z,102307.25
2024-03-06T18:06:19.636Z,102312.09
2024-03-06T18:08:46.294Z,102301.56
2024-03-06T18:11:13.002Z,102310.50
2024-03-06T18:13:40.556Z,102314.59
2024-03-06T18:16:12.546Z,102311.38
2024-03-06T18:18:39.353Z,102310.16
2024-03-06T18:21:07.058Z,102315.84
2024-03-06T18:23:33.616Z,102318.31
2024-03-06T18:26:00.506Z,102315.47
2024-03-06T18:28:27.774Z,102313.88
2024-03-06T18:30:54.466Z,102313.91
2024-03-06T18:33:21.525Z,102328.50
2024-03-06T18:35:48.213Z,102317.97
2024-03-06T18:38:14.884Z,102328.50
2024-03-06T18:40:41.501Z,102327.31
2024-03-06T18:43:08.024Z,102318.00
2024-03-06T18:45:34.601Z,102326.13
2024-03-06T18:48:03.211Z,102324.53
2024-03-06T18:50:32.726Z,102331.03
2024-03-06T18:52:59.856Z,102345.22
2024-03-06T18:55:27.536Z,102337.13
2024-03-06T18:57:54.134Z,102339.13
2024-03-06T19:00:21.907Z,102342.84
2024-03-06T19:02:50.949Z,102344.03
2024-03-06T19:05:18.089Z,102343.66
2024-03-06T19:07:45.487Z,102347.34
2024-03-06T19:10:12.691Z,102348.16
2024-03-06T19:12:39.184Z,102348.97
2024-03-06T19:15:07.739Z,102354.63
2024-03-06T19:17:35.740Z,102360.31
2024-03-06T19:20:02.431Z,102351.03
2024-03-06T19:22:28.923Z,102343.75
2024-03-06T19:24:55.440Z,102347.00
2024-03-06T19:27:23.693Z,102346.59
2024-03-06T19:29:53.202Z,102358.38
2024-03-06T19:32:19.685Z,102353.47
2024-03-06T19:34:46.275Z,102356.34
2024-03-06T19:37:12.721Z,102356.38
2024-03-06T19:39:39.250Z,102354.34
2024-03-06T19:42:10.220Z,102364.06
2024-03-06T19:44:36.868Z,102360.47
2024-03-06T19:47:05.079Z,102357.22
2024-03-06T19:49:31.632Z,102362.06
2024-03-06T19:51:58.216Z,102353.19
2024-03-06T19:54:24.809Z,102360.47
2024-03-06T19:56:52.678Z,102359.66
2024-03-06T19:59:19.372Z,102363.75
2024-03-06T20:01:45.973Z,102358.91
2024-03-06T20:04:12.553Z,102365.38
2024-03-06T20:06:39.086Z,102366.19
2024-03-06T20:09:06.310Z,102364.59
2024-03-06T20:11:32.868Z,102367.81
2024-03-06T20:13:59.513Z,102368.63
2024-03-06T20:16:27.102Z,102362.16
2024-03-06T20:18:53.694Z,102361.78
2024-03-06T20:21:22.261Z,102364.63
2024-03-06T20:23:49.884Z,102360.56
2024-03-06T20:26:16.519Z,102361.81
2024-03-06T20:28:44.986Z,102367.88
2024-03-06T20:31:11.545Z,102357.75
2024-03-06T20:33:38.120Z,102363.44
2024-03-06T20:36:06.234Z,102361.03
2024-03-06T20:38:34.026Z,102361.41
2024-03-06T20:41:00.615Z,102363.44
2024-03-06T20:43:27.302Z,102367.09
2024-03-06T20:45:55.711Z,102357.38
2024-03-06T20:48:26.818Z,102365.50
2024-03-06T20:50:53.500Z,102367.13
2024-03-06T20:53:20.612Z,102366.31
2024-03-06T20:55:48.173Z,102378.47
2024-03-06T20:58:15.045Z,102372.00
2024-03-06T21:00:41.731Z,102370.38
2024-03-06T21:03:09.521Z,102366.34
2024-03-06T21:05:36.231Z,102367.97
2024-03-06T21:08:02.882Z,102378.09
2024-03-06T21:10:29.997Z,102370.00
2024-03-06T21:12:56.628Z,102377.66
2024-03-06T21:15:25.554Z,102376.88
2024-03-06T21:17:52.251Z,102375.25
2024-03-06T21:20:19.016Z,102371.25
2024-03-06T21:22:46.118Z,102367.97
2024-03-06T21:25:13.773Z,102364.75
2024-03-06T21:27:40.875Z,102378.94
2024-03-06T21:30:09.294Z,102368.00
2024-03-06T21:32:36.945Z,102374.88
2024-03-06T21:35:04.122Z,102372.44
2024-03-06T21:37:34.179Z,102366.00
2024-03-06T21:40:00.882Z,102370.44
2024-03-06T21:42:27.434Z,102372.84
2024-03-06T21:44:54.371Z,102371.66
2024-03-06T21:47:22.320Z,102369.63
2024-03-06T21:49:50.244Z,102382.59
2024-03-06T21:52:16.736Z,102383.78
2024-03-06T21:54:43.929Z,102369.66
2024-03-06T21:57:13.831Z,102381.41
2024-03-06T21:59:40.598Z,102374.91
2024-03-06T22:02:08.949Z,102378.56
2024-03-06T22:04:35.604Z,102373.28
2024-03-06T22:07:02.171Z,102375.31
2024-03-06T22:09:28.644Z,102373.72
2024-03-06T22:11:55.227Z,102378.19
2024-03-06T22:14:21.881Z,102387.09
2024-03-06T22:16:48.377Z,102370.50
2024-03-06T22:19:15.251Z,102378.59
2024-03-06T22:21:42.694Z,102378.59
2024-03-06T22:24:09.378Z,102382.63
2024-03-06T22:26:35.882Z,102381.03
2024-03-06T22:29:04.972Z,102376.56
2024-03-06T22:31:31.413Z,102374.94
2024-03-06T22:33:58.033Z,102371.31
2024-03-06T22:36:24.834Z,102376.97
2024-03-06T22:38:51.485Z,102384.66
2024-03-06T22:41:22.118Z,102370.50
2024-03-06T22:43:49.482Z,102387.50
2024-03-06T22:46:16.361Z,102396.38
2024-03-06T22:48:46.506Z,102397.63
2024-03-06T22:51:13.063Z,102396.81
2024-03-06T22:53:39.913Z,102391.56
2024-03-06T22:56:07.137Z,102407.72
2024-03-06T22:58:33.812Z,102389.53
2024-03-06T23:01:00.310Z,102400.47
2024-03-06T23:03:27.100Z,102396.41
2024-03-06T23:05:54.229Z,102391.56
2024-03-06T23:08:20.881Z,102381.84
2024-03-06T23:10:47.404Z,102377.00
2024-03-06T23:13:15.927Z,102387.94
2024-03-06T23:15:43.551Z,102385.88
2024-03-06T23:18:13.838Z,102394.78
2024-03-06T23:20:40.445Z,102398.84
2024-03-06T23:23:07.544Z,102390.75
2024-03-06T23:25:34.314Z,102386.31
2024-03-06T23:28:02.365Z,102392.78
2024-03-06T23:30:29.016Z,102388.34
2024-03-06T23:32:56.375Z,102386.72
2024-03-06T23:35:23.210Z,102376.59
2024-03-06T23:37:50.319Z,102378.63
2024-03-06T23:40:17.077Z,102380.25
2024-03-06T23:42:45.462Z,102387.91
2024-03-06T23:45:13.021Z,102392.38
2024-03-06T23:47:40.530Z,102389.16
2024-03-06T23:50:09.008Z,102385.50
2024-03-06T23:52:36.689Z,102379.44
2024-03-06T23:55:04.932Z,102381.44
2024-03-06T23:57:31.383Z,102375.41
2024-03-06T23:59:58.717Z,102382.69
